Time;durP1;ratioP1;P1;durP2;ratioP2;P2;SDS_P1;SDS_P2;PMS_P1;PMS_P2;Temp;Humidity;BMP_temperature;BMP_pressure;BME280_temperature;BME280_humidity;BME280_pressure;Samples;Min_cycle;Max_cycle;Signal;HPM_P1;HPM_P2
2022/12/31 00:00:39;;;;;;;1.20;0.50;;;16.00;99.90;;;;;;5031730;28;20204;-73
2022/12/31 00:03:06;;;;;;;1.50;0.60;;;16.00;99.90;;;;;;5030896;28;20173;-74
2022/12/31 00:05:33;;;;;;;1.17;0.50;;;16.00;99.90;;;;;;5049807;28;20603;-74
2022/12/31 00:08:00;;;;;;;1.20;0.50;;;16.00;99.90;;;;;;5015183;28;20611;-74
2022/12/31 00:10:28;;;;;;;1.10;0.40;;;16.00;99.90;;;;;;5031546;28;21032;-74
2022/12/31 00:12:54;;;;;;;1.20;0.50;;;16.00;99.90;;;;;;5031038;28;20576;-74
2022/12/31 00:15:19;;;;;;;1.20;0.40;;;16.10;99.90;;;;;;5048660;28;20623;-74
2022/12/31 00:17:45;;;;;;;1.27;0.50;;;16.10;99.90;;;;;;5049596;28;20185;-74
2022/12/31 00:20:11;;;;;;;1.20;0.50;;;16.10;99.90;;;;;;5049187;28;20215;-74
2022/12/31 00:22:37;;;;;;;1.70;0.40;;;16.10;99.90;;;;;;5031396;28;20807;-74
2022/12/31 00:25:03;;;;;;;1.10;0.40;;;16.10;99.90;;;;;;5030589;28;20603;-74
2022/12/31 00:27:30;;;;;;;1.30;0.50;;;16.10;99.90;;;;;;5049519;28;20514;-74
2022/12/31 00:29:56;;;;;;;1.20;0.50;;;16.10;99.90;;;;;;5049065;28;21017;-74
2022/12/31 00:32:22;;;;;;;1.13;0.40;;;16.20;99.90;;;;;;5049152;28;20587;-73
2022/12/31 00:34:47;;;;;;;1.10;0.47;;;16.20;99.90;;;;;;5048417;28;20181;-73
2022/12/31 00:37:13;;;;;;;1.00;0.40;;;16.30;99.90;;;;;;5014860;28;20694;-75
2022/12/31 00:39:38;;;;;;;1.10;0.40;;;16.30;99.90;;;;;;5014625;28;20213;-74
2022/12/31 00:42:04;;;;;;;1.30;0.40;;;16.30;99.90;;;;;;5014520;28;20180;-74
2022/12/31 00:44:30;;;;;;;1.20;0.50;;;16.30;99.90;;;;;;5030669;28;20189;-74
2022/12/31 00:46:55;;;;;;;1.10;0.40;;;16.30;99.90;;;;;;5048889;28;20165;-74
2022/12/31 00:49:21;;;;;;;1.00;0.40;;;16.40;99.90;;;;;;5031262;28;20191;-74
2022/12/31 00:51:47;;;;;;;1.20;0.40;;;16.40;99.90;;;;;;5030597;28;20232;-74
2022/12/31 00:54:13;;;;;;;1.10;0.40;;;16.40;99.90;;;;;;5030151;28;20180;-74
2022/12/31 00:56:38;;;;;;;1.30;0.40;;;16.50;99.90;;;;;;5048681;28;21121;-74
2022/12/31 00:59:04;;;;;;;1.00;0.40;;;16.50;99.90;;;;;;5031122;28;20177;-74
2022/12/31 01:01:35;;;;;;;1.10;0.40;;;16.60;99.90;;;;;;5030675;28;20188;-74
2022/12/31 01:04:08;;;;;;;1.10;0.40;;;16.60;99.90;;;;;;5014003;28;20169;-74
2022/12/31 01:06:34;;;;;;;1.40;0.40;;;16.60;99.90;;;;;;5030594;28;20583;-74
2022/12/31 01:09:00;;;;;;;1.00;0.37;;;16.70;99.90;;;;;;5014535;28;20602;-74
2022/12/31 01:11:30;;;;;;;1.30;0.40;;;16.70;99.90;;;;;;5014175;28;20576;-74
2022/12/31 01:14:17;;;;;;;1.10;0.40;;;16.70;99.90;;;;;;5048287;28;20575;-74
2022/12/31 01:16:52;;;;;;;2.17;0.40;;;16.80;99.90;;;;;;5031099;28;20754;-73
2022/12/31 01:19:20;;;;;;;1.10;0.40;;;16.80;99.90;;;;;;5048833;28;20628;-74
2022/12/31 01:21:47;;;;;;;1.00;0.40;;;16.90;99.90;;;;;;5048148;28;20623;-74
2022/12/31 01:24:13;;;;;;;1.27;0.40;;;16.90;99.90;;;;;;5030116;28;20590;-74
2022/12/31 01:26:39;;;;;;;1.00;0.30;;;17.00;99.90;;;;;;5014274;28;20582;-74
2022/12/31 01:29:07;;;;;;;1.00;0.30;;;17.00;99.90;;;;;;5030751;28;20613;-74
2022/12/31 01:31:34;;;;;;;1.00;0.30;;;17.00;99.90;;;;;;5030520;28;20568;-74
2022/12/31 01:34:00;;;;;;;1.00;0.30;;;17.10;99.90;;;;;;5013580;28;20625;-74
2022/12/31 01:36:29;;;;;;;1.10;0.40;;;17.10;99.90;;;;;;5030510;28;20674;-74
2022/12/31 01:38:56;;;;;;;1.20;0.53;;;17.10;99.90;;;;;;5031165;28;20594;-74
2022/12/31 01:41:28;;;;;;;1.00;0.30;;;17.20;99.90;;;;;;5031791;28;20626;-74
2022/12/31 01:43:58;;;;;;;1.50;0.40;;;17.20;99.90;;;;;;5048121;28;20575;-74
2022/12/31 01:46:52;;;;;;;1.00;0.30;;;17.20;99.90;;;;;;5030665;28;20599;-74
2022/12/31 01:49:26;;;;;;;1.00;0.30;;;17.20;99.90;;;;;;5048043;28;20585;-73
2022/12/31 01:52:01;;;;;;;1.00;0.40;;;17.30;99.90;;;;;;5030438;28;20620;-74
2022/12/31 01:54:30;;;;;;;1.20;0.40;;;17.30;99.90;;;;;;5013315;28;20603;-74
2022/12/31 01:56:56;;;;;;;1.00;0.30;;;17.30;99.90;;;;;;5030764;28;21058;-74
2022/12/31 01:59:25;;;;;;;1.00;0.30;;;17.40;99.90;;;;;;5030486;28;20647;-74
2022/12/31 02:01:54;;;;;;;1.50;0.40;;;17.40;99.90;;;;;;4999971;28;20640;-74
2022/12/31 02:04:38;;;;;;;1.87;0.40;;;17.40;99.90;;;;;;5007887;28;20677;-74
2022/12/31 02:07:07;;;;;;;1.00;0.30;;;17.40;99.90;;;;;;4987047;28;20597;-74
2022/12/31 02:09:37;;;;;;;1.00;0.30;;;17.40;99.90;;;;;;5034046;28;20576;-74
2022/12/31 02:12:03;;;;;;;1.07;0.30;;;17.40;99.90;;;;;;5030966;28;20596;-74
2022/12/31 02:14:32;;;;;;;1.00;0.30;;;17.50;99.90;;;;;;5033329;28;20676;-74
2022/12/31 02:17:19;;;;;;;1.10;0.30;;;17.50;99.90;;;;;;5051648;28;20571;-74
2022/12/31 02:20:11;;;;;;;1.17;0.33;;;17.40;99.90;;;;;;4997528;28;20595;-74
2022/12/31 02:23:02;;;;;;;1.00;0.30;;;17.50;99.90;;;;;;5037489;28;20586;-74
2022/12/31 02:25:56;;;;;;;1.10;0.30;;;17.50;99.90;;;;;;5033305;28;20598;-73
2022/12/31 02:28:54;;;;;;;1.00;0.30;;;17.50;99.90;;;;;;5033865;28;20567;-74
2022/12/31 02:31:33;;;;;;;1.47;0.43;;;17.50;99.90;;;;;;5033346;28;20587;-74
2022/12/31 02:34:11;;;;;;;1.13;0.40;;;17.50;99.90;;;;;;5016741;28;20591;-74
2022/12/31 02:36:43;;;;;;;1.17;0.40;;;17.50;99.90;;;;;;5033834;28;20759;-74
2022/12/31 02:39:11;;;;;;;1.10;0.40;;;17.50;99.90;;;;;;5034047;28;20578;-74
2022/12/31 02:41:48;;;;;;;1.00;0.30;;;17.60;99.90;;;;;;5033210;28;20785;-74
2022/12/31 02:44:23;;;;;;;1.10;0.33;;;17.60;99.90;;;;;;5033227;28;20614;-74
2022/12/31 02:47:02;;;;;;;1.00;0.30;;;17.60;99.90;;;;;;5033877;28;20578;-74
2022/12/31 02:49:32;;;;;;;1.20;0.30;;;17.60;99.90;;;;;;5033043;28;20575;-74
2022/12/31 02:52:07;;;;;;;1.00;0.30;;;17.60;99.90;;;;;;5016501;28;20623;-74
2022/12/31 02:54:47;;;;;;;1.07;0.30;;;17.70;99.90;;;;;;4999753;28;20619;-74
2022/12/31 02:57:15;;;;;;;1.00;0.30;;;17.70;99.90;;;;;;5017316;28;20598;-74
2022/12/31 03:02:39;;;;;;;1.00;0.33;;;17.80;99.90;;;;;;5032965;28;20572;-74
2022/12/31 03:05:07;;;;;;;1.27;0.40;;;17.90;99.90;;;;;;5032179;28;20669;-73
2022/12/31 03:07:33;;;;;;;1.10;0.30;;;17.90;99.90;;;;;;5033073;28;20670;-74
2022/12/31 03:10:00;;;;;;;1.10;0.40;;;17.90;99.90;;;;;;5032841;28;21022;-74
2022/12/31 03:12:46;;;;;;;1.17;0.30;;;18.00;99.90;;;;;;5032820;28;20575;-73
2022/12/31 03:15:21;;;;;;;1.67;0.30;;;18.00;99.90;;;;;;5049959;28;20631;-73
2022/12/31 03:18:04;;;;;;;1.00;0.30;;;18.10;99.90;;;;;;5029415;28;20687;-73
2022/12/31 03:23:22;;;;;;;1.40;0.37;;;18.10;99.90;;;;;;5025999;28;20584;-73
2022/12/31 03:25:47;;;;;;;1.00;0.30;;;18.10;99.90;;;;;;5019617;28;20633;-73
2022/12/31 03:28:18;;;;;;;2.03;0.30;;;18.20;99.90;;;;;;5016045;28;21134;-73
2022/12/31 03:30:47;;;;;;;1.10;0.30;;;18.20;99.90;;;;;;5032543;28;20192;-73
2022/12/31 03:33:13;;;;;;;1.10;0.40;;;18.20;99.90;;;;;;5031704;28;20601;-74
2022/12/31 03:35:41;;;;;;;1.10;0.30;;;18.20;99.90;;;;;;5032189;28;20619;-74
2022/12/31 03:38:06;;;;;;;1.40;0.40;;;18.20;99.90;;;;;;5050481;28;20972;-74
2022/12/31 03:40:38;;;;;;;1.00;0.40;;;18.20;99.90;;;;;;5049995;28;20693;-74
2022/12/31 03:43:03;;;;;;;1.50;0.30;;;18.20;99.90;;;;;;5049695;28;20864;-75
2022/12/31 03:45:29;;;;;;;1.37;0.33;;;18.20;99.90;;;;;;5015649;28;20619;-74
2022/12/31 03:47:55;;;;;;;1.00;0.30;;;18.20;99.90;;;;;;5031965;28;20181;-73
2022/12/31 03:50:21;;;;;;;1.10;0.30;;;18.20;99.90;;;;;;5032332;28;20176;-74
2022/12/31 03:52:47;;;;;;;3.10;0.40;;;18.20;99.90;;;;;;5015352;28;20641;-73
2022/12/31 03:55:12;;;;;;;1.20;0.30;;;18.20;99.90;;;;;;5049592;28;20583;-73
2022/12/31 03:57:38;;;;;;;1.20;0.40;;;18.20;99.90;;;;;;5049813;28;20629;-73
2022/12/31 04:00:07;;;;;;;1.10;0.30;;;18.20;99.90;;;;;;5032160;28;20700;-73
2022/12/31 04:02:33;;;;;;;1.10;0.37;;;18.20;99.90;;;;;;5031282;28;20590;-73
2022/12/31 04:04:59;;;;;;;1.10;0.30;;;18.10;99.90;;;;;;5031631;28;20698;-73
2022/12/31 04:07:25;;;;;;;1.00;0.30;;;18.10;99.90;;;;;;5031629;28;20199;-73
2022/12/31 04:09:50;;;;;;;1.60;0.40;;;18.10;99.90;;;;;;5032134;28;20672;-74
2022/12/31 04:12:16;;;;;;;1.00;0.30;;;18.10;99.90;;;;;;5049596;28;20537;-73
2022/12/31 04:14:42;;;;;;;1.30;0.30;;;18.10;99.90;;;;;;5031278;28;20204;-73
2022/12/31 04:17:07;;;;;;;1.07;0.30;;;18.10;99.90;;;;;;5049542;28;20203;-73
2022/12/31 04:19:33;;;;;;;1.10;0.40;;;18.10;99.90;;;;;;5049468;28;20276;-73
2022/12/31 04:21:59;;;;;;;2.30;0.40;;;18.10;99.90;;;;;;5049349;28;20205;-74
2022/12/31 04:24:24;;;;;;;1.40;0.40;;;18.10;99.90;;;;;;5048912;28;20188;-73
2022/12/31 04:26:50;;;;;;;1.10;0.40;;;18.10;99.90;;;;;;5031705;28;20169;-73
2022/12/31 04:29:16;;;;;;;1.00;0.40;;;18.10;99.90;;;;;;5048650;28;20641;-73
2022/12/31 04:31:41;;;;;;;1.07;0.30;;;18.10;99.90;;;;;;5031136;28;20177;-73
2022/12/31 04:34:07;;;;;;;1.00;0.30;;;18.10;99.90;;;;;;5048707;28;20168;-73
2022/12/31 04:36:33;;;;;;;1.40;0.37;;;18.20;99.90;;;;;;5049502;28;20176;-73
2022/12/31 04:38:59;;;;;;;1.10;0.40;;;18.20;99.90;;;;;;5014955;28;20198;-74
2022/12/31 04:41:25;;;;;;;1.00;0.30;;;18.20;99.90;;;;;;5014699;28;20729;-73
2022/12/31 04:43:56;;;;;;;1.00;0.30;;;18.20;99.90;;;;;;5030991;28;20177;-73
2022/12/31 04:46:30;;;;;;;1.10;0.30;;;18.20;99.90;;;;;;5048976;28;20621;-73
2022/12/31 04:48:57;;;;;;;1.00;0.30;;;18.20;99.90;;;;;;5031929;28;20583;-73
2022/12/31 04:51:24;;;;;;;1.50;0.30;;;18.20;99.90;;;;;;5048549;28;20653;-73
2022/12/31 04:53:50;;;;;;;1.10;0.30;;;18.30;99.90;;;;;;5030700;28;20580;-73
2022/12/31 04:56:16;;;;;;;1.10;0.30;;;18.30;99.90;;;;;;5048919;28;20610;-73
2022/12/31 04:58:43;;;;;;;1.00;0.30;;;18.30;99.90;;;;;;5049188;28;20580;-73
2022/12/31 05:01:09;;;;;;;1.00;0.30;;;18.30;99.90;;;;;;5013992;28;20642;-74
2022/12/31 05:03:35;;;;;;;1.20;0.40;;;18.40;99.90;;;;;;5014452;28;20256;-74
2022/12/31 05:06:03;;;;;;;1.30;0.40;;;18.40;99.90;;;;;;5030851;28;20714;-74
2022/12/31 05:08:29;;;;;;;2.27;0.40;;;18.50;99.90;;;;;;5031671;28;20591;-73
2022/12/31 05:10:55;;;;;;;1.60;0.40;;;18.50;99.90;;;;;;5048809;28;20580;-73
2022/12/31 05:13:22;;;;;;;1.00;0.30;;;18.50;99.90;;;;;;5013236;28;20959;-72
2022/12/31 05:15:48;;;;;;;1.10;0.40;;;18.50;99.90;;;;;;5030797;28;20631;-72
2022/12/31 05:18:14;;;;;;;1.10;0.40;;;18.60;99.90;;;;;;5031123;28;21012;-72
2022/12/31 05:20:40;;;;;;;1.10;0.40;;;18.60;99.90;;;;;;5031077;28;20239;-72
2022/12/31 05:23:05;;;;;;;1.20;0.40;;;18.60;99.90;;;;;;5047946;28;20567;-73
2022/12/31 05:25:31;;;;;;;1.10;0.33;;;18.70;99.90;;;;;;5031261;28;20288;-72
2022/12/31 05:27:57;;;;;;;1.60;0.37;;;18.70;99.90;;;;;;5048711;28;20568;-73
2022/12/31 05:30:23;;;;;;;1.50;0.70;;;18.70;99.90;;;;;;5048885;28;20660;-72
2022/12/31 05:32:49;;;;;;;1.10;0.30;;;18.80;99.90;;;;;;5030535;28;20249;-72
2022/12/31 05:35:15;;;;;;;3.20;0.40;;;18.80;99.90;;;;;;5048272;28;20607;-72
2022/12/31 05:37:40;;;;;;;1.63;0.67;;;18.80;99.90;;;;;;5048505;28;20226;-73
2022/12/31 05:40:07;;;;;;;2.07;0.43;;;18.90;99.90;;;;;;5032039;28;20224;-73
2022/12/31 05:42:33;;;;;;;1.10;0.40;;;18.90;99.90;;;;;;5034105;28;20195;-73
2022/12/31 05:44:58;;;;;;;1.10;0.40;;;18.90;99.90;;;;;;5052009;28;21186;-72
2022/12/31 05:47:24;;;;;;;2.20;0.40;;;19.00;99.90;;;;;;5018342;28;21090;-72
2022/12/31 05:49:50;;;;;;;1.93;0.40;;;19.00;99.90;;;;;;5052206;28;20173;-73
2022/12/31 05:52:16;;;;;;;1.70;0.43;;;19.00;99.90;;;;;;5034364;28;20212;-72
2022/12/31 05:54:42;;;;;;;2.07;0.50;;;19.10;99.90;;;;;;5033640;28;20616;-73
2022/12/31 05:57:08;;;;;;;1.20;0.40;;;19.10;99.90;;;;;;5034614;28;21148;-73
2022/12/31 05:59:33;;;;;;;1.63;0.50;;;19.20;99.90;;;;;;5052146;28;20177;-72
2022/12/31 06:01:59;;;;;;;1.10;0.40;;;19.20;99.90;;;;;;5052003;28;20299;-72
2022/12/31 06:04:25;;;;;;;1.10;0.40;;;19.20;99.90;;;;;;5033593;28;20212;-72
2022/12/31 06:06:51;;;;;;;1.27;0.40;;;19.20;99.90;;;;;;5052191;28;20559;-72
2022/12/31 06:09:17;;;;;;;1.83;0.40;;;19.20;99.90;;;;;;5051651;28;20578;-73
2022/12/31 06:11:44;;;;;;;1.20;0.50;;;19.20;99.90;;;;;;5017454;28;20184;-73
2022/12/31 06:14:10;;;;;;;1.40;0.50;;;19.20;99.90;;;;;;5032798;28;20638;-73
2022/12/31 06:16:36;;;;;;;1.10;0.40;;;19.20;99.90;;;;;;5031929;28;20671;-73
2022/12/31 06:19:02;;;;;;;1.30;0.40;;;19.20;99.90;;;;;;5031966;28;21325;-73
2022/12/31 06:21:29;;;;;;;1.30;0.50;;;19.10;99.90;;;;;;5013782;28;20198;-72
2022/12/31 06:23:54;;;;;;;1.37;0.40;;;19.10;99.90;;;;;;5031310;28;20569;-72
2022/12/31 06:26:20;;;;;;;2.33;0.50;;;19.10;99.90;;;;;;5031548;28;21603;-72
2022/12/31 06:28:46;;;;;;;2.43;0.50;;;19.00;99.90;;;;;;5031833;28;20572;-72
2022/12/31 06:31:13;;;;;;;1.70;0.40;;;19.00;99.90;;;;;;5013496;28;20174;-72
2022/12/31 06:33:40;;;;;;;2.47;0.43;;;19.00;99.90;;;;;;5013531;28;20580;-72
2022/12/31 06:36:10;;;;;;;1.27;0.40;;;19.00;99.90;;;;;;5013690;28;21019;-72
2022/12/31 06:38:38;;;;;;;1.10;0.40;;;19.00;99.90;;;;;;5035594;28;20610;-72
2022/12/31 06:41:05;;;;;;;1.00;0.40;;;19.00;99.90;;;;;;5033168;28;20643;-72
2022/12/31 06:43:31;;;;;;;1.57;0.50;;;19.00;99.90;;;;;;5033149;28;20576;-72
2022/12/31 06:46:04;;;;;;;1.37;0.40;;;19.10;99.90;;;;;;5016848;28;20614;-72
2022/12/31 06:48:30;;;;;;;2.17;0.60;;;19.10;99.90;;;;;;5033397;28;20165;-72
2022/12/31 06:50:56;;;;;;;1.30;0.40;;;19.10;99.90;;;;;;5033108;28;20580;-72
2022/12/31 06:53:22;;;;;;;1.30;0.40;;;19.10;99.90;;;;;;5031640;28;20610;-72
2022/12/31 06:55:48;;;;;;;1.37;0.50;;;19.10;99.90;;;;;;5051207;28;21158;-72
2022/12/31 06:58:15;;;;;;;1.20;0.40;;;19.10;99.90;;;;;;5050882;28;20637;-72
2022/12/31 07:00:54;;;;;;;1.20;0.40;;;19.10;99.90;;;;;;5033207;28;20801;-73
2022/12/31 07:03:28;;;;;;;1.30;0.40;;;19.10;99.90;;;;;;5050307;28;20658;-73
2022/12/31 07:06:09;;;;;;;2.00;0.57;;;19.20;99.90;;;;;;5033060;28;20605;-72
2022/12/31 07:08:59;;;;;;;1.50;0.50;;;19.20;99.90;;;;;;5032817;28;20575;-72
2022/12/31 07:11:48;;;;;;;1.10;0.40;;;19.20;99.90;;;;;;5032790;28;20671;-72
2022/12/31 07:14:36;;;;;;;1.70;0.53;;;19.20;99.90;;;;;;5015562;28;20586;-73
2022/12/31 07:17:25;;;;;;;1.13;0.40;;;19.20;99.90;;;;;;5032893;28;20655;-72
2022/12/31 07:20:02;;;;;;;1.30;0.40;;;19.20;99.90;;;;;;5032886;28;20579;-73
2022/12/31 07:22:28;;;;;;;1.50;0.40;;;19.20;99.90;;;;;;5016117;28;20611;-73
2022/12/31 07:24:54;;;;;;;1.03;0.40;;;19.30;99.90;;;;;;5049968;28;21212;-72
2022/12/31 07:27:29;;;;;;;1.20;0.40;;;19.30;99.90;;;;;;5050659;28;20667;-73
2022/12/31 07:30:06;;;;;;;1.67;0.40;;;19.30;99.90;;;;;;5032578;28;20571;-75
2022/12/31 07:32:34;;;;;;;1.40;0.47;;;19.30;99.90;;;;;;5016066;28;20611;-74
2022/12/31 07:35:15;;;;;;;1.40;0.40;;;19.30;99.90;;;;;;5032018;28;20596;-75
2022/12/31 07:37:59;;;;;;;1.20;0.40;;;19.30;99.90;;;;;;5032780;28;20593;-75
2022/12/31 07:40:33;;;;;;;1.20;0.40;;;19.30;99.90;;;;;;5018901;28;20625;-75
2022/12/31 07:43:13;;;;;;;2.03;0.50;;;19.30;99.90;;;;;;5015977;28;20679;-75
2022/12/31 07:45:51;;;;;;;1.53;0.40;;;19.30;99.90;;;;;;5018400;28;20616;-76
2022/12/31 07:48:28;;;;;;;1.67;0.40;;;19.30;99.90;;;;;;5018801;28;20943;-76
2022/12/31 07:50:56;;;;;;;1.17;0.40;;;19.30;99.90;;;;;;5019024;28;20916;-76
2022/12/31 07:53:25;;;;;;;1.30;0.40;;;19.30;99.90;;;;;;5021116;28;20569;-76
2022/12/31 07:56:03;;;;;;;2.03;0.53;;;19.30;99.90;;;;;;4994872;28;20635;-76
2022/12/31 07:58:59;;;;;;;2.17;0.43;;;19.40;99.90;;;;;;5018939;28;20580;-76
2022/12/31 08:01:42;;;;;;;1.50;0.40;;;19.40;99.90;;;;;;4997198;28;20723;-76
2022/12/31 08:04:20;;;;;;;1.30;0.60;;;19.40;99.90;;;;;;5019471;28;20570;-76
2022/12/31 08:07:10;;;;;;;1.93;0.50;;;19.40;99.90;;;;;;4986339;28;20941;-75
2022/12/31 08:09:46;;;;;;;2.63;0.40;;;19.40;99.90;;;;;;5012788;28;20591;-75
2022/12/31 08:12:12;;;;;;;1.10;0.40;;;19.40;99.90;;;;;;5029913;28;20575;-75
2022/12/31 08:14:46;;;;;;;1.37;0.50;;;19.40;99.90;;;;;;5012234;28;20684;-75
2022/12/31 08:17:17;;;;;;;2.60;0.47;;;19.40;99.90;;;;;;5030453;28;20591;-75
2022/12/31 08:19:44;;;;;;;1.70;0.40;;;19.40;99.90;;;;;;5011945;28;20584;-76
2022/12/31 08:22:18;;;;;;;1.60;0.60;;;19.40;99.90;;;;;;5012028;28;20969;-76
2022/12/31 08:25:03;;;;;;;2.50;0.50;;;19.40;99.90;;;;;;5011659;28;20666;-75
2022/12/31 08:27:49;;;;;;;1.30;0.50;;;19.40;99.90;;;;;;5009352;28;20611;-76
2022/12/31 08:30:18;;;;;;;2.40;0.50;;;19.40;99.90;;;;;;5041202;28;20954;-76
2022/12/31 08:33:03;;;;;;;1.47;0.47;;;19.40;99.90;;;;;;5007106;28;20616;-75
2022/12/31 08:35:49;;;;;;;2.10;0.50;;;19.40;99.90;;;;;;4998905;28;21542;-76
2022/12/31 08:39:03;;;;;;;1.77;0.50;;;19.40;99.90;;;;;;4975971;28;20578;-75
2022/12/31 08:41:41;;;;;;;1.53;0.50;;;19.50;99.90;;;;;;4962072;28;20747;-75
2022/12/31 08:44:38;;;;;;;2.27;0.60;;;19.50;99.90;;;;;;4991171;28;20589;-75
2022/12/31 08:47:31;;;;;;;2.10;0.50;;;19.50;99.90;;;;;;4992254;28;20613;-76
2022/12/31 08:49:57;;;;;;;1.40;0.60;;;19.60;99.90;;;;;;5009384;28;20597;-76
2022/12/31 08:52:25;;;;;;;2.03;0.53;;;19.60;99.90;;;;;;5009373;28;20616;-76
2022/12/31 08:54:52;;;;;;;2.30;0.50;;;19.60;99.90;;;;;;5008929;28;20637;-76
2022/12/31 08:57:26;;;;;;;1.53;0.60;;;19.60;99.90;;;;;;4992029;28;20621;-76
2022/12/31 09:00:01;;;;;;;2.53;0.50;;;19.60;99.90;;;;;;4975431;28;20607;-75
2022/12/31 09:02:56;;;;;;;2.20;0.50;;;19.70;99.90;;;;;;4991419;28;21039;-75
2022/12/31 09:05:40;;;;;;;2.03;0.50;;;19.70;99.90;;;;;;5003713;28;20686;-74
2022/12/31 09:08:28;;;;;;;1.83;0.50;;;19.70;99.90;;;;;;5011683;28;21135;-74
2022/12/31 09:11:06;;;;;;;1.47;0.50;;;19.70;99.90;;;;;;5033640;28;20938;-74
2022/12/31 09:13:48;;;;;;;1.67;0.60;;;19.80;99.90;;;;;;5014736;28;20594;-74
2022/12/31 09:16:33;;;;;;;2.70;0.50;;;19.80;99.90;;;;;;5051954;28;20726;-74
2022/12/31 09:18:59;;;;;;;2.57;0.70;;;19.90;99.90;;;;;;5035143;28;20582;-74
2022/12/31 09:21:25;;;;;;;1.30;0.50;;;19.90;99.90;;;;;;5018157;28;20627;-75
2022/12/31 09:23:51;;;;;;;1.57;0.50;;;19.90;99.90;;;;;;5034579;28;20583;-74
2022/12/31 09:26:38;;;;;;;2.37;0.60;;;19.90;99.90;;;;;;5034615;28;20209;-74
2022/12/31 09:29:31;;;;;;;1.20;0.53;;;19.90;99.90;;;;;;5034724;28;20698;-74
2022/12/31 09:32:45;;;;;;;1.40;0.60;;;20.00;99.90;;;;;;5001554;28;20603;-73
2022/12/31 09:35:14;;;;;;;1.80;0.50;;;20.00;99.90;;;;;;5007434;28;20611;-74
2022/12/31 09:37:46;;;;;;;1.70;0.60;;;20.10;99.90;;;;;;5034429;28;21448;-74
2022/12/31 09:40:49;;;;;;;1.27;0.53;;;20.10;99.90;;;;;;5052358;28;20978;-75
2022/12/31 09:43:50;;;;;;;3.00;0.60;;;20.10;99.90;;;;;;5033967;28;20579;-73
2022/12/31 09:46:39;;;;;;;1.63;0.60;;;20.20;99.90;;;;;;4970878;28;20637;-74
2022/12/31 09:49:32;;;;;;;2.43;0.50;;;20.20;99.90;;;;;;5052179;28;20582;-74
2022/12/31 09:52:27;;;;;;;1.73;0.60;;;20.20;99.90;;;;;;5017643;28;20593;-74
2022/12/31 09:55:10;;;;;;;2.30;0.60;;;20.20;99.90;;;;;;4980036;28;21230;-74
2022/12/31 09:57:45;;;;;;;1.73;0.70;;;20.20;99.90;;;;;;5017240;28;20571;-73
2022/12/31 10:00:27;;;;;;;2.03;0.50;;;20.20;99.90;;;;;;5017331;28;20593;-74
2022/12/31 10:03:01;;;;;;;3.07;0.63;;;20.20;99.90;;;;;;5033394;28;20579;-74
2022/12/31 10:05:41;;;;;;;4.57;2.20;;;20.30;99.90;;;;;;5033731;28;21004;-73
2022/12/31 10:08:41;;;;;;;2.53;0.60;;;20.30;99.90;;;;;;5033985;28;20716;-74
2022/12/31 10:11:48;;;;;;;7.43;0.97;;;20.30;99.90;;;;;;5033822;28;20584;-74
2022/12/31 10:14:47;;;;;;;2.30;0.50;;;20.40;99.90;;;;;;5009755;28;20670;-74
2022/12/31 10:17:40;;;;;;;1.60;0.60;;;20.40;99.90;;;;;;5033854;28;20632;-74
2022/12/31 10:20:46;;;;;;;2.13;0.60;;;20.40;99.90;;;;;;5033445;28;20579;-74
2022/12/31 10:23:48;;;;;;;2.27;0.50;;;20.40;99.90;;;;;;5037584;28;20594;-74
2022/12/31 10:26:26;;;;;;;2.97;0.57;;;20.40;99.90;;;;;;5035321;28;20622;-74
2022/12/31 10:29:13;;;;;;;1.27;0.40;;;20.50;99.90;;;;;;5033220;28;20571;-75
2022/12/31 10:31:55;;;;;;;2.70;0.70;;;20.50;99.90;;;;;;5019622;28;20655;-74
2022/12/31 10:34:44;;;;;;;2.30;0.50;;;20.60;99.90;;;;;;5024417;28;20615;-74
2022/12/31 10:37:17;;;;;;;3.47;0.70;;;20.60;99.90;;;;;;5033793;28;20752;-75
2022/12/31 10:40:07;;;;;;;1.27;0.40;;;20.70;99.90;;;;;;5051303;28;20678;-74
2022/12/31 10:42:52;;;;;;;1.33;0.50;;;20.80;99.90;;;;;;5051145;28;20678;-75
2022/12/31 10:45:36;;;;;;;1.33;0.50;;;20.90;99.90;;;;;;5015986;28;20607;-74
2022/12/31 10:48:30;;;;;;;1.87;0.60;;;20.90;99.90;;;;;;5016914;28;20576;-75
2022/12/31 10:51:20;;;;;;;1.63;0.50;;;20.90;99.90;;;;;;5051091;28;20621;-74
2022/12/31 10:54:25;;;;;;;3.03;0.60;;;20.90;99.90;;;;;;5050988;28;20991;-76
2022/12/31 10:57:32;;;;;;;1.93;0.60;;;20.90;99.90;;;;;;5033533;28;20579;-76
2022/12/31 11:00:16;;;;;;;1.70;0.57;;;20.90;99.90;;;;;;5010621;28;20592;-77
2022/12/31 11:03:04;;;;;;;1.70;0.50;;;20.90;99.90;;;;;;5039337;28;20600;-76
2022/12/31 11:06:14;;;;;;;2.60;0.57;;;20.90;99.90;;;;;;5022818;28;20642;-75
2022/12/31 11:08:51;;;;;;;1.30;0.50;;;20.90;99.90;;;;;;4966226;28;20770;-75
2022/12/31 11:11:30;;;;;;;1.50;0.57;;;20.90;99.90;;;;;;4987491;28;20601;-75
2022/12/31 11:14:13;;;;;;;2.10;0.60;;;20.90;99.90;;;;;;4995391;28;20589;-75
2022/12/31 11:17:06;;;;;;;1.70;0.60;;;20.90;99.90;;;;;;4985703;28;20597;-76
2022/12/31 11:19:31;;;;;;;2.43;0.60;;;20.90;99.90;;;;;;5009499;28;20617;-75
2022/12/31 11:22:29;;;;;;;2.70;0.50;;;20.90;99.90;;;;;;5014620;28;20635;-75
2022/12/31 11:25:10;;;;;;;2.93;0.70;;;20.90;99.90;;;;;;5012470;28;20226;-75
2022/12/31 11:27:36;;;;;;;2.00;0.57;;;20.90;99.90;;;;;;5005749;28;20916;-75
2022/12/31 11:30:26;;;;;;;2.67;0.57;;;20.90;99.90;;;;;;5015381;28;20712;-75
2022/12/31 11:33:16;;;;;;;1.10;0.40;;;20.90;99.90;;;;;;5043046;28;20230;-75
2022/12/31 11:36:15;;;;;;;2.17;0.60;;;20.90;99.90;;;;;;5016718;28;21274;-75
2022/12/31 11:39:09;;;;;;;2.80;0.80;;;20.90;99.90;;;;;;5034307;28;20587;-75
2022/12/31 11:41:54;;;;;;;2.50;0.77;;;21.00;99.90;;;;;;4997454;28;21267;-75
2022/12/31 11:45:04;;;;;;;1.73;0.60;;;21.00;99.90;;;;;;5029238;28;21103;-75
2022/12/31 11:47:54;;;;;;;1.90;0.60;;;21.10;99.90;;;;;;5032339;28;20593;-75
2022/12/31 11:50:51;;;;;;;2.43;0.50;;;21.10;99.90;;;;;;5032126;28;21164;-74
2022/12/31 11:53:39;;;;;;;1.20;0.50;;;21.10;99.90;;;;;;4981014;28;20612;-75
2022/12/31 11:56:16;;;;;;;3.63;0.70;;;21.00;99.90;;;;;;5030380;28;21233;-74
2022/12/31 11:58:47;;;;;;;6.03;0.80;;;21.00;99.90;;;;;;5033362;28;20586;-74
2022/12/31 12:01:24;;;;;;;3.00;1.63;;;21.00;99.90;;;;;;5007267;28;21196;-74
2022/12/31 12:03:51;;;;;;;2.53;0.90;;;20.90;99.90;;;;;;5006208;28;20632;-75
2022/12/31 12:06:23;;;;;;;1.60;0.73;;;20.90;99.90;;;;;;5014227;28;20991;-75
2022/12/31 12:08:55;;;;;;;3.57;0.60;;;20.90;99.90;;;;;;5031600;28;20998;-75
2022/12/31 12:11:26;;;;;;;2.70;0.80;;;20.80;99.90;;;;;;5036199;28;20591;-75
2022/12/31 12:13:51;;;;;;;2.53;0.70;;;20.80;99.90;;;;;;5024195;28;20600;-75
2022/12/31 12:16:20;;;;;;;2.43;0.90;;;20.80;99.90;;;;;;5015904;28;20718;-75
2022/12/31 12:18:49;;;;;;;2.50;0.80;;;20.70;99.90;;;;;;4993923;28;20185;-74
2022/12/31 12:21:21;;;;;;;2.00;0.63;;;20.80;99.90;;;;;;5017938;28;20644;-74
2022/12/31 12:23:57;;;;;;;1.90;0.67;;;20.70;99.90;;;;;;5012361;28;20592;-74
2022/12/31 12:26:38;;;;;;;2.77;0.80;;;20.70;99.90;;;;;;5005283;28;20622;-75
2022/12/31 12:29:27;;;;;;;1.30;0.60;;;20.70;99.90;;;;;;5046817;28;20623;-75
2022/12/31 12:32:14;;;;;;;1.60;0.87;;;20.70;99.90;;;;;;5020929;28;20632;-74
2022/12/31 12:34:41;;;;;;;2.00;1.07;;;20.70;99.90;;;;;;5005216;28;20623;-75
2022/12/31 12:37:23;;;;;;;2.00;0.60;;;20.70;99.90;;;;;;5013934;28;20617;-75
2022/12/31 12:40:25;;;;;;;3.17;0.60;;;20.70;99.90;;;;;;5032822;28;21142;-74
2022/12/31 12:42:52;;;;;;;2.27;0.70;;;20.80;99.90;;;;;;5050717;28;21176;-75
2022/12/31 12:45:40;;;;;;;1.50;0.60;;;20.80;99.90;;;;;;5050701;28;20608;-75
2022/12/31 12:48:17;;;;;;;2.03;0.67;;;20.80;99.90;;;;;;5032539;28;20583;-75
2022/12/31 12:50:47;;;;;;;1.20;0.50;;;20.80;99.90;;;;;;5032603;28;21141;-75
2022/12/31 12:53:35;;;;;;;3.00;0.80;;;20.80;99.90;;;;;;5051453;28;20575;-75
2022/12/31 12:59:00;;;;;;;1.73;0.60;;;20.80;99.90;;;;;;4945046;28;20652;-79
2022/12/31 13:01:39;;;;;;;2.83;0.67;;;20.70;99.90;;;;;;4934628;29;20607;-79
2022/12/31 13:04:05;;;;;;;3.23;0.70;;;20.70;99.90;;;;;;4933991;28;20600;-80
2022/12/31 13:07:23;;;;;;;2.43;1.10;;;20.70;99.90;;;;;;4924072;28;20755;-79
2022/12/31 13:10:01;;;;;;;2.57;0.60;;;20.60;99.90;;;;;;4946097;28;20187;-78
2022/12/31 13:12:36;;;;;;;2.43;0.60;;;20.60;99.90;;;;;;4947720;28;20614;-78
2022/12/31 13:15:23;;;;;;;1.70;0.70;;;20.60;99.90;;;;;;4954170;28;20582;-78
2022/12/31 13:18:04;;;;;;;1.70;0.67;;;20.60;99.90;;;;;;4954832;28;20633;-78
2022/12/31 13:20:34;;;;;;;14.43;1.13;;;20.50;99.90;;;;;;4969132;28;20606;-78
2022/12/31 13:23:10;;;;;;;2.17;0.80;;;20.50;99.90;;;;;;4965853;28;20602;-78
2022/12/31 13:26:20;;;;;;;1.90;0.60;;;20.50;99.90;;;;;;4954951;28;20587;-77
2022/12/31 13:28:49;;;;;;;2.00;0.70;;;20.50;99.90;;;;;;4971110;28;21181;-77
2022/12/31 13:31:22;;;;;;;3.50;0.70;;;20.40;99.90;;;;;;4971629;28;20631;-77
2022/12/31 13:33:54;;;;;;;3.60;0.77;;;20.30;99.90;;;;;;4954398;28;20591;-77
2022/12/31 13:36:24;;;;;;;1.73;0.60;;;20.20;99.90;;;;;;4955092;28;20614;-76